Time;durP1;ratioP1;P1;durP2;ratioP2;P2;SDS_P1;SDS_P2;PMS_P1;PMS_P2;Temp;Humidity;BMP_temperature;BMP_pressure;BME280_temperature;BME280_humidity;BME280_pressure;Samples;Min_cycle;Max_cycle;Signal;HPM_P1;HPM_P2
2022/10/03 00:01:14;;;;;;;;;;;11.60;99.90;;;;;;5135151;27;20043;-66
2022/10/03 00:03:59;;;;;;;15.85;3.13;;;11.50;99.90;;;;;;5134302;27;19919;-66
2022/10/03 00:06:53;;;;;;;11.27;2.20;;;11.50;99.90;;;;;;5134546;27;20047;-65
2022/10/03 00:09:46;;;;;;;13.15;2.40;;;11.50;99.90;;;;;;5134212;27;20045;-65
2022/10/03 00:12:11;;;;;;;19.67;3.03;;;11.40;99.90;;;;;;5134277;27;20036;-66
2022/10/03 00:14:55;;;;;;;13.90;2.45;;;11.30;99.90;;;;;;5134104;27;20070;-66
2022/10/03 00:17:43;;;;;;;13.25;2.85;;;11.30;99.90;;;;;;5134098;27;20507;-66
2022/10/03 00:20:44;;;;;;;15.93;2.72;;;11.40;99.90;;;;;;5134144;27;20512;-66
2022/10/03 00:23:20;;;;;;;11.45;2.13;;;11.40;99.90;;;;;;5134358;27;20051;-66
2022/10/03 00:26:25;;;;;;;10.38;2.58;;;11.40;99.90;;;;;;5134015;27;20035;-65
2022/10/03 00:29:08;;;;;;;;;;;11.40;99.90;;;;;;5134183;27;20043;-65
2022/10/03 00:32:20;;;;;;;11.20;2.60;;;11.40;99.90;;;;;;5133998;27;20350;-66
2022/10/03 00:35:11;;;;;;;13.70;2.50;;;11.30;99.90;;;;;;5049765;28;20052;-66
2022/10/03 00:38:02;;;;;;;18.55;2.90;;;11.30;99.90;;;;;;5049810;28;20055;-66
2022/10/03 00:40:38;;;;;;;11.90;2.83;;;11.30;99.90;;;;;;5033600;28;20051;-66
2022/10/03 00:43:27;;;;;;;12.60;2.70;;;11.20;99.90;;;;;;5050319;28;20457;-65
2022/10/03 00:46:08;;;;;;;14.27;2.78;;;11.20;99.90;;;;;;5049869;28;20397;-65
2022/10/03 00:49:07;;;;;;;11.77;2.47;;;11.20;99.90;;;;;;5050023;28;20048;-66
2022/10/03 00:51:50;;;;;;;12.23;2.20;;;11.20;99.90;;;;;;5033240;28;20141;-65
2022/10/03 00:54:44;;;;;;;13.95;2.53;;;11.10;99.90;;;;;;5049776;28;20040;-66
2022/10/03 00:57:54;;;;;;;12.45;2.50;;;11.10;99.90;;;;;;5050080;28;20140;-66
2022/10/03 01:00:29;;;;;;;11.55;2.15;;;11.10;99.90;;;;;;4990612;28;20125;-65
2022/10/03 01:03:28;;;;;;;13.52;2.60;;;11.10;99.90;;;;;;5044813;28;20053;-66
2022/10/03 01:06:08;;;;;;;10.00;2.47;;;11.10;99.90;;;;;;5049536;28;20041;-66
2022/10/03 01:08:50;;;;;;;12.55;2.63;;;11.10;99.90;;;;;;5033068;28;20037;-65
2022/10/03 01:11:28;;;;;;;12.60;2.60;;;11.00;99.90;;;;;;5093969;27;20051;-66
2022/10/03 01:14:14;;;;;;;13.40;2.90;;;11.00;99.90;;;;;;5131643;27;20065;-66
2022/10/03 01:17:09;;;;;;;11.77;2.60;;;11.10;99.90;;;;;;5133135;27;20495;-66
2022/10/03 01:19:46;;;;;;;9.50;2.65;;;11.00;99.90;;;;;;5133185;27;20201;-66
2022/10/03 01:22:18;;;;;;;10.50;2.17;;;11.00;99.90;;;;;;5133187;27;20095;-66
2022/10/03 01:24:58;;;;;;;10.75;2.67;;;10.90;99.90;;;;;;5131666;27;20391;-66
2022/10/03 01:30:41;;;;;;;11.10;2.65;;;10.90;99.90;;;;;;5132904;27;20437;-66
2022/10/03 01:33:17;;;;;;;9.45;2.38;;;10.90;99.90;;;;;;5133001;27;20620;-66
2022/10/03 01:36:02;;;;;;;11.70;2.78;;;10.90;99.90;;;;;;5132744;27;20043;-66
2022/10/03 01:39:11;;;;;;;6.65;2.10;;;10.90;99.90;;;;;;5132969;27;20039;-66
2022/10/03 01:41:59;;;;;;;10.00;2.40;;;10.90;99.90;;;;;;5132815;27;20506;-66
2022/10/03 01:44:43;;;;;;;13.00;2.67;;;10.90;99.90;;;;;;5132524;27;20807;-66
2022/10/03 01:47:26;;;;;;;14.85;2.58;;;10.90;99.90;;;;;;5131557;28;20058;-66
2022/10/03 01:50:19;;;;;;;10.43;2.63;;;11.00;99.90;;;;;;5134600;27;20069;-66
2022/10/03 01:53:03;;;;;;;8.25;2.13;;;10.90;99.90;;;;;;5137279;27;20039;-65
2022/10/03 01:55:44;;;;;;;10.65;2.08;;;10.80;99.90;;;;;;5136716;27;20039;-66
2022/10/03 01:58:33;;;;;;;9.32;2.58;;;10.80;99.90;;;;;;5136822;27;20042;-66
2022/10/03 02:01:20;;;;;;;11.63;2.53;;;10.80;99.90;;;;;;5137028;27;20039;-66
2022/10/03 02:04:03;;;;;;;13.18;2.60;;;10.80;99.90;;;;;;5136695;27;20451;-66
2022/10/03 02:06:41;;;;;;;11.10;2.63;;;10.80;99.90;;;;;;5135684;27;20039;-66
2022/10/03 02:09:07;;;;;;;11.85;2.45;;;10.80;99.90;;;;;;5136674;27;20044;-66
2022/10/03 02:11:51;;;;;;;9.73;2.15;;;10.80;99.90;;;;;;5136558;27;20422;-66
2022/10/03 02:14:26;;;;;;;8.15;2.30;;;10.80;99.90;;;;;;5136577;27;20039;-66
2022/10/03 02:17:17;;;;;;;15.40;2.33;;;10.80;99.90;;;;;;5136414;27;20031;-66
2022/10/03 02:20:07;;;;;;;12.88;3.13;;;10.80;99.90;;;;;;5099290;27;20403;-66
2022/10/03 02:22:37;;;;;;;13.68;2.40;;;10.80;99.90;;;;;;5136565;27;20411;-66
2022/10/03 02:25:22;;;;;;;15.40;3.58;;;10.80;99.90;;;;;;5136204;27;20057;-66
2022/10/03 02:28:13;;;;;;;6.90;2.30;;;10.80;99.90;;;;;;5136201;27;20044;-66
2022/10/03 02:31:00;;;;;;;10.57;2.67;;;10.70;99.90;;;;;;5136449;27;20062;-66
2022/10/03 02:34:14;;;;;;;16.25;3.13;;;10.70;99.90;;;;;;5136313;27;20507;-66
2022/10/03 02:37:06;;;;;;;13.00;2.25;;;10.70;99.90;;;;;;5136352;27;20058;-66
2022/10/03 02:39:59;;;;;;;12.60;1.83;;;10.70;99.90;;;;;;5136052;27;20063;-66
2022/10/03 02:42:49;;;;;;;5.50;1.85;;;10.70;99.90;;;;;;5136400;27;20039;-66
2022/10/03 02:45:42;;;;;;;8.35;2.95;;;10.70;99.90;;;;;;5134618;27;20632;-65
2022/10/03 02:48:28;;;;;;;5.45;2.35;;;10.70;99.90;;;;;;5135959;27;20043;-65
2022/10/03 02:51:24;;;;;;;11.23;2.58;;;10.70;99.90;;;;;;5134960;27;20510;-65
2022/10/03 02:54:27;;;;;;;15.02;2.53;;;10.70;99.90;;;;;;5135482;27;20372;-66
2022/10/03 02:57:23;;;;;;;12.13;2.30;;;10.60;99.90;;;;;;5135987;27;20039;-66
2022/10/03 03:00:10;;;;;;;13.77;2.83;;;10.60;99.90;;;;;;5135367;27;20099;-66
2022/10/03 03:02:50;;;;;;;8.55;2.05;;;10.60;99.90;;;;;;5135795;27;20118;-66
2022/10/03 03:05:26;;;;;;;8.90;2.50;;;10.70;99.90;;;;;;5135166;27;20047;-65
2022/10/03 03:08:17;;;;;;;12.73;2.53;;;10.70;99.90;;;;;;5148623;27;20043;-66
2022/10/03 03:11:07;;;;;;;16.05;2.50;;;10.70;99.90;;;;;;5156290;27;20113;-65
2022/10/03 03:13:50;;;;;;;9.55;2.33;;;10.70;99.90;;;;;;5156151;27;20041;-66
2022/10/03 03:16:32;;;;;;;9.90;2.03;;;10.60;99.90;;;;;;5156013;27;20050;-65
2022/10/03 03:19:33;;;;;;;11.32;2.67;;;10.60;99.90;;;;;;5156262;27;20049;-66
2022/10/03 03:22:26;;;;;;;10.88;2.13;;;10.60;99.90;;;;;;5155978;27;20081;-66
2022/10/03 03:25:14;;;;;;;13.95;2.53;;;10.60;99.90;;;;;;5155659;27;20134;-66
2022/10/03 03:27:48;;;;;;;12.18;2.38;;;10.60;99.90;;;;;;5155852;27;20035;-66
2022/10/03 03:30:21;;;;;;;6.57;1.92;;;10.60;99.90;;;;;;5155821;27;20113;-66
2022/10/03 03:33:03;;;;;;;11.65;2.00;;;10.60;99.90;;;;;;5155768;27;20079;-66
2022/10/03 03:35:38;;;;;;;;;;;10.50;99.90;;;;;;5156039;27;20660;-66
2022/10/03 03:38:17;;;;;;;9.30;2.08;;;10.40;99.90;;;;;;5155741;27;19972;-66
2022/10/03 03:41:05;;;;;;;11.73;2.38;;;10.40;99.90;;;;;;5155660;27;20486;-66
2022/10/03 03:43:43;;;;;;;6.70;2.22;;;10.40;99.90;;;;;;5155543;27;20038;-66
2022/10/03 03:46:39;;;;;;;9.70;2.25;;;10.40;99.90;;;;;;5155482;27;20034;-66
2022/10/03 03:49:29;;;;;;;7.68;2.58;;;10.40;99.90;;;;;;5155611;27;20093;-66
2022/10/03 03:52:11;;;;;;;10.40;1.83;;;10.40;99.90;;;;;;5155570;27;20042;-66
2022/10/03 03:54:45;;;;;;;7.07;2.00;;;10.40;99.90;;;;;;5155147;27;20505;-66
2022/10/03 03:57:20;;;;;;;5.53;1.67;;;10.40;99.90;;;;;;5154031;27;20042;-66
2022/10/03 04:00:10;;;;;;;5.30;2.15;;;10.40;99.90;;;;;;5155191;27;20036;-66
2022/10/03 04:02:51;;;;;;;11.43;2.50;;;10.30;99.90;;;;;;5155381;27;20380;-66
2022/10/03 04:05:36;;;;;;;7.13;2.00;;;10.30;99.90;;;;;;5154849;27;20042;-66
2022/10/03 04:08:15;;;;;;;9.18;2.53;;;10.30;99.90;;;;;;5155048;27;20487;-66
2022/10/03 04:11:00;;;;;;;9.52;2.42;;;10.30;99.90;;;;;;5155050;27;20516;-66
2022/10/03 04:13:46;;;;;;;9.65;1.98;;;10.30;99.90;;;;;;5154258;27;20047;-66
2022/10/03 04:20:00;;;;;;;5.73;2.13;;;10.30;99.90;;;;;;5154948;27;20050;-66
2022/10/03 04:23:04;;;;;;;10.98;2.53;;;10.30;99.90;;;;;;5121162;27;20178;-66
2022/10/03 04:25:48;;;;;;;12.35;2.83;;;10.30;99.90;;;;;;5153624;27;20054;-66
2022/10/03 04:28:33;;;;;;;12.52;2.65;;;10.40;99.90;;;;;;5154675;27;20053;-66
2022/10/03 04:31:17;;;;;;;6.03;1.70;;;10.30;99.90;;;;;;5153635;27;20120;-66
2022/10/03 04:34:10;;;;;;;5.85;1.98;;;10.30;99.90;;;;;;5154574;27;20126;-67
2022/10/03 04:36:41;;;;;;;;;;;10.30;99.90;;;;;;5154911;27;20402;-66
2022/10/03 04:39:26;;;;;;;6.40;1.83;;;10.20;99.90;;;;;;5154638;27;19915;-64
2022/10/03 04:42:02;;;;;;;6.55;1.60;;;10.20;99.90;;;;;;5154354;27;20038;-64
2022/10/03 04:44:48;;;;;;;6.47;1.95;;;10.20;99.90;;;;;;5154218;27;20046;-66
2022/10/03 04:47:16;;;;;;;;;;;10.10;99.90;;;;;;5154647;27;20038;-66
2022/10/03 04:49:51;;;;;;;5.93;2.03;;;10.10;99.90;;;;;;5154391;27;19915;-67
2022/10/03 04:52:55;;;;;;;8.70;1.80;;;10.00;99.90;;;;;;5154362;27;20030;-66
2022/10/03 04:55:44;;;;;;;8.02;1.90;;;10.10;99.90;;;;;;5153800;27;20461;-68
2022/10/03 04:58:30;;;;;;;9.80;2.15;;;10.00;99.90;;;;;;5154084;27;20042;-65
2022/10/03 05:01:10;;;;;;;9.77;2.22;;;10.10;99.90;;;;;;5154240;27;20062;-65
2022/10/03 05:03:42;;;;;;;6.85;2.10;;;10.00;99.90;;;;;;5135403;27;20046;-65
2022/10/03 05:06:47;;;;;;;8.52;2.15;;;10.00;99.90;;;;;;5153851;27;20046;-65
2022/10/03 05:09:50;;;;;;;16.45;2.38;;;10.00;99.90;;;;;;5153916;27;20038;-65
2022/10/03 05:12:38;;;;;;;7.43;2.45;;;9.90;99.90;;;;;;5153653;27;20049;-65
2022/10/03 05:15:26;;;;;;;6.55;2.00;;;9.90;99.90;;;;;;5152804;27;20095;-65
2022/10/03 05:18:36;;;;;;;9.90;2.50;;;9.90;99.90;;;;;;5153802;27;20070;-65
2022/10/03 05:21:25;;;;;;;7.07;2.20;;;9.90;99.90;;;;;;5153963;27;20106;-65
2022/10/03 05:24:14;;;;;;;9.27;2.45;;;9.80;99.90;;;;;;5152151;27;20034;-65
2022/10/03 05:27:00;;;;;;;9.70;2.38;;;9.80;99.90;;;;;;5152264;27;20039;-65
2022/10/03 05:29:45;;;;;;;6.60;2.08;;;9.80;99.90;;;;;;5153688;27;20043;-65
2022/10/03 05:32:30;;;;;;;5.97;2.00;;;9.80;99.90;;;;;;5151446;27;20039;-65
2022/10/03 05:35:26;;;;;;;6.47;1.92;;;9.80;99.90;;;;;;5150715;27;20041;-65
2022/10/03 05:38:15;;;;;;;8.95;2.05;;;9.70;99.90;;;;;;5152336;27;20612;-65
2022/10/03 05:41:18;;;;;;;4.35;1.70;;;9.80;99.90;;;;;;5152966;27;20234;-65
2022/10/03 05:44:11;;;;;;;6.80;1.40;;;9.70;99.90;;;;;;5152214;27;20529;-65
2022/10/03 05:46:44;;;;;;;8.05;1.65;;;9.80;99.90;;;;;;5152735;27;20538;-65
2022/10/03 05:49:42;;;;;;;4.68;2.75;;;9.70;99.90;;;;;;5153455;27;20134;-65
2022/10/03 05:52:37;;;;;;;3.83;1.70;;;9.80;99.90;;;;;;5153639;27;20422;-65
2022/10/03 05:55:27;;;;;;;4.95;1.60;;;9.80;99.90;;;;;;5153192;27;20064;-65
2022/10/03 05:58:30;;;;;;;9.88;1.98;;;9.80;99.90;;;;;;5153330;27;20039;-65
2022/10/03 06:01:14;;;;;;;2.42;1.48;;;9.80;99.90;;;;;;5152116;27;20490;-64
2022/10/03 06:04:01;;;;;;;2.15;1.75;;;9.80;99.90;;;;;;5152443;27;20042;-65
2022/10/03 06:07:00;;;;;;;3.10;1.67;;;9.80;99.90;;;;;;5153034;27;20035;-66
2022/10/03 06:09:51;;;;;;;4.15;1.33;;;9.90;99.90;;;;;;5153187;27;20046;-66
2022/10/03 06:12:45;;;;;;;1.90;1.60;;;9.90;99.90;;;;;;5153108;27;20097;-65
2022/10/03 06:15:23;;;;;;;1.55;1.45;;;9.90;99.90;;;;;;5153135;27;20060;-66
2022/10/03 06:17:52;;;;;;;6.07;1.50;;;10.00;99.90;;;;;;5152960;27;20066;-65
2022/10/03 06:20:55;;;;;;;4.55;1.50;;;10.00;99.90;;;;;;5153423;27;20389;-65
2022/10/03 06:23:33;;;;;;;;;;;10.10;99.90;;;;;;5153529;27;20035;-66
2022/10/03 06:26:24;;;;;;;4.63;2.22;;;10.10;99.90;;;;;;5152710;27;19915;-66
2022/10/03 06:29:27;;;;;;;4.25;1.52;;;10.10;99.90;;;;;;5153120;27;20072;-65
2022/10/03 06:32:11;;;;;;;5.88;1.08;;;10.20;99.90;;;;;;5153021;27;20121;-66
2022/10/03 06:34:49;;;;;;;7.15;1.90;;;10.20;99.90;;;;;;5152645;27;20558;-66
2022/10/03 06:37:52;;;;;;;3.55;1.80;;;10.20;99.90;;;;;;5156881;27;20034;-65
2022/10/03 06:40:40;;;;;;;;;;;10.30;99.90;;;;;;5155915;27;20049;-66
2022/10/03 06:43:24;;;;;;;4.93;1.80;;;10.40;99.90;;;;;;5156713;27;19915;-66
2022/10/03 06:46:14;;;;;;;2.80;1.80;;;10.40;99.90;;;;;;5155104;27;20079;-65
2022/10/03 06:48:49;;;;;;;3.58;1.60;;;10.50;99.90;;;;;;5156613;27;20499;-65
2022/10/03 06:51:39;;;;;;;2.92;1.60;;;10.50;99.90;;;;;;5156613;27;20053;-66
2022/10/03 06:54:18;;;;;;;4.50;1.67;;;10.50;99.90;;;;;;5137572;27;20087;-66
2022/10/03 06:57:01;;;;;;;4.68;1.73;;;10.50;99.90;;;;;;5138197;27;20510;-65
2022/10/03 06:59:55;;;;;;;4.53;2.03;;;10.60;99.90;;;;;;5156545;27;20045;-66
2022/10/03 07:02:49;;;;;;;5.63;1.75;;;10.60;99.90;;;;;;5156509;27;20073;-66
2022/10/03 07:05:52;;;;;;;5.72;1.70;;;10.70;99.90;;;;;;5155077;27;20095;-65
2022/10/03 07:08:46;;;;;;;5.80;2.88;;;10.70;99.90;;;;;;5071773;28;20544;-65
2022/10/03 07:11:25;;;;;;;3.05;1.88;;;10.70;99.90;;;;;;5071926;28;20425;-65
2022/10/03 07:14:18;;;;;;;3.20;2.20;;;10.70;99.90;;;;;;5038573;28;20518;-66
2022/10/03 07:16:43;;;;;;;2.92;1.80;;;10.80;99.90;;;;;;5071928;28;20489;-65
2022/10/03 07:19:30;;;;;;;4.78;2.00;;;10.80;99.90;;;;;;5071625;28;20059;-65
2022/10/03 07:22:20;;;;;;;7.15;1.85;;;10.80;99.90;;;;;;5055314;28;20405;-65
2022/10/03 07:25:29;;;;;;;7.13;1.60;;;10.90;99.90;;;;;;5054712;28;20524;-65
2022/10/03 07:28:21;;;;;;;7.90;2.08;;;10.90;99.90;;;;;;5065819;28;20061;-68
2022/10/03 07:30:50;;;;;;;4.85;2.25;;;10.90;99.90;;;;;;5071565;28;20040;-66
2022/10/03 07:33:53;;;;;;;4.85;1.88;;;10.90;99.90;;;;;;5071603;28;20048;-66
2022/10/03 07:39:44;;;;;;;3.60;1.80;;;11.00;99.90;;;;;;5119554;27;20074;-66
2022/10/03 07:42:12;;;;;;;4.53;1.87;;;11.10;99.90;;;;;;5145428;27;20121;-66
2022/10/03 07:44:56;;;;;;;4.00;2.05;;;11.10;99.90;;;;;;5142651;27;20525;-67
2022/10/03 07:47:40;;;;;;;2.25;1.80;;;11.10;99.90;;;;;;5143344;27;20047;-66
2022/10/03 07:50:30;;;;;;;4.47;1.90;;;11.20;99.90;;;;;;5145407;27;20031;-66
2022/10/03 07:53:06;;;;;;;4.07;1.83;;;11.20;99.90;;;;;;5143739;27;20091;-67
2022/10/03 07:55:58;;;;;;;5.93;1.90;;;11.20;99.90;;;;;;5147839;27;20095;-66
2022/10/03 07:58:53;;;;;;;7.20;1.92;;;11.30;99.90;;;;;;5151131;27;20054;-66
2022/10/03 08:01:43;;;;;;;2.17;1.50;;;11.30;99.90;;;;;;5070465;27;20055;-66
2022/10/03 08:04:34;;;;;;;6.72;1.80;;;11.30;99.90;;;;;;5151201;27;20551;-67
2022/10/03 08:07:09;;;;;;;6.18;1.40;;;11.40;99.90;;;;;;5152881;27;20077;-66
2022/10/03 08:09:55;;;;;;;9.13;1.83;;;11.50;99.90;;;;;;5154754;27;20039;-66
2022/10/03 08:12:56;;;;;;;4.95;1.73;;;11.50;99.90;;;;;;5152954;27;20035;-66
2022/10/03 08:15:57;;;;;;;3.08;1.58;;;11.50;99.90;;;;;;5153718;27;20526;-66
2022/10/03 08:18:47;;;;;;;4.30;1.50;;;11.60;99.90;;;;;;5119597;27;20126;-65
2022/10/03 08:21:37;;;;;;;4.63;1.45;;;11.70;99.90;;;;;;5154319;27;20046;-66
2022/10/03 08:24:16;;;;;;;5.25;1.63;;;11.70;99.90;;;;;;5154083;27;20122;-66
2022/10/03 08:27:12;;;;;;;5.10;1.63;;;11.70;99.90;;;;;;5154446;27;20070;-66
2022/10/03 08:29:37;;;;;;;4.18;1.90;;;11.70;99.90;;;;;;5154602;27;20042;-66
2022/10/03 08:32:45;;;;;;;3.75;1.80;;;11.70;99.90;;;;;;5154311;27;20030;-66
2022/10/03 08:35:37;;;;;;;3.67;1.95;;;11.80;99.90;;;;;;5153814;27;20034;-66
2022/10/03 08:38:13;;;;;;;5.20;1.48;;;11.90;99.90;;;;;;5154733;27;20047;-66
2022/10/03 08:40:39;;;;;;;6.20;1.35;;;12.00;99.90;;;;;;5152546;27;20050;-66
2022/10/03 08:43:42;;;;;;;6.85;1.30;;;12.00;99.90;;;;;;5154065;27;20049;-66
2022/10/03 08:46:53;;;;;;;5.35;1.50;;;12.00;99.90;;;;;;5154060;27;20114;-66
2022/10/03 08:49:53;;;;;;;3.60;1.10;;;12.00;99.90;;;;;;5153003;27;20498;-66
2022/10/03 08:52:28;;;;;;;9.98;1.48;;;12.10;99.90;;;;;;5153893;27;20573;-66
2022/10/03 08:55:18;;;;;;;3.50;1.75;;;12.20;99.90;;;;;;5153645;27;20117;-66
2022/10/03 08:58:21;;;;;;;2.90;1.48;;;12.20;99.90;;;;;;5153902;27;20042;-66
2022/10/03 09:01:07;;;;;;;;;;;12.30;99.90;;;;;;5153760;27;20095;-66
2022/10/03 09:03:45;;;;;;;3.95;1.92;;;12.40;99.90;;;;;;5138958;27;19915;-66
2022/10/03 09:06:31;;;;;;;6.25;1.58;;;12.40;99.90;;;;;;5153558;27;20122;-66
2022/10/03 09:09:29;;;;;;;3.90;1.65;;;12.50;99.90;;;;;;5153654;27;20035;-66
2022/10/03 09:12:33;;;;;;;4.90;1.40;;;12.60;99.90;;;;;;5153381;27;20042;-66
2022/10/03 09:15:29;;;;;;;6.97;1.30;;;12.60;99.90;;;;;;5152168;27;20074;-66
2022/10/03 09:18:13;;;;;;;4.65;1.02;;;12.70;99.90;;;;;;5153580;27;20043;-66
2022/10/03 09:20:51;;;;;;;4.95;1.30;;;12.80;99.90;;;;;;5151934;27;20039;-65
2022/10/03 09:23:52;;;;;;;5.45;1.15;;;12.80;99.90;;;;;;5148419;27;20049;-66
2022/10/03 09:26:58;;;;;;;2.45;1.48;;;12.90;99.90;;;;;;5139823;27;20050;-66
2022/10/03 09:29:29;;;;;;;3.83;1.00;;;13.00;99.90;;;;;;5153625;27;20444;-66
2022/10/03 09:32:29;;;;;;;8.07;1.15;;;13.00;99.90;;;;;;5153504;27;20114;-66
2022/10/03 09:35:38;;;;;;;7.35;2.15;;;13.10;99.90;;;;;;5153193;27;20035;-65
2022/10/03 09:38:18;;;;;;;11.50;3.63;;;13.10;99.90;;;;;;5107220;27;20042;-66
2022/10/03 09:41:22;;;;;;;7.10;2.20;;;13.20;99.90;;;;;;5153357;27;20027;-66
2022/10/03 09:43:56;;;;;;;3.38;1.45;;;13.30;99.90;;;;;;5152600;27;20045;-66
2022/10/03 09:46:25;;;;;;;8.00;1.63;;;13.40;99.90;;;;;;5152003;27;20972;-66
2022/10/03 09:48:57;;;;;;;4.95;1.30;;;13.40;99.90;;;;;;5153160;27;20039;-66
2022/10/03 09:51:41;;;;;;;6.00;1.30;;;13.40;99.90;;;;;;5142351;27;20039;-65
2022/10/03 09:54:34;;;;;;;3.60;0.90;;;13.40;99.90;;;;;;5136928;27;20056;-66
2022/10/03 09:57:05;;;;;;;;;;;13.50;99.90;;;;;;5132894;27;20122;-65
2022/10/03 09:59:52;;;;;;;6.22;1.23;;;13.50;99.90;;;;;;5132233;28;19919;-65
2022/10/03 10:03:00;;;;;;;3.45;0.93;;;13.50;99.90;;;;;;5131267;28;20046;-65
2022/10/03 10:06:04;;;;;;;7.50;1.30;;;13.70;99.90;;;;;;5101745;27;20054;-66
2022/10/03 10:08:37;;;;;;;3.55;1.15;;;13.70;99.90;;;;;;5132283;27;20051;-66
2022/10/03 10:11:18;;;;;;;3.50;1.05;;;13.80;99.90;;;;;;5133356;27;20508;-66
2022/10/03 10:13:56;;;;;;;4.13;1.38;;;13.90;99.90;;;;;;5136368;27;20042;-66
2022/10/03 10:16:59;;;;;;;2.08;0.93;;;13.90;99.90;;;;;;5117923;27;20039;-66
2022/10/03 10:19:38;;;;;;;5.10;0.98;;;13.90;99.90;;;;;;5136170;27;20112;-66
2022/10/03 10:22:19;;;;;;;5.75;1.25;;;13.90;99.90;;;;;;5136366;27;20053;-67
2022/10/03 10:25:11;;;;;;;3.17;1.17;;;14.00;99.90;;;;;;5135986;27;20035;-67
2022/10/03 10:28:03;;;;;;;4.60;1.30;;;14.00;99.90;;;;;;5135894;27;20039;-67
2022/10/03 10:30:34;;;;;;;8.65;1.40;;;14.10;99.90;;;;;;5125514;27;20039;-67
2022/10/03 10:33:27;;;;;;;5.28;1.00;;;14.10;99.90;;;;;;5134381;27;20047;-67
2022/10/03 10:36:30;;;;;;;2.38;1.00;;;14.10;99.90;;;;;;5135847;27;20446;-67
2022/10/03 10:39:14;;;;;;;2.67;1.00;;;14.20;99.90;;;;;;5135942;27;20177;-66
2022/10/03 10:42:11;;;;;;;4.55;1.20;;;14.20;99.90;;;;;;5134654;27;20043;-66
2022/10/03 10:45:13;;;;;;;1.40;0.65;;;14.20;99.90;;;;;;5135485;27;20042;-66
2022/10/03 10:48:03;;;;;;;3.92;0.90;;;14.30;99.90;;;;;;5135501;27;20035;-66
2022/10/03 10:51:13;;;;;;;3.63;1.45;;;14.40;99.90;;;;;;5135805;27;20088;-66
2022/10/03 10:53:57;;;;;;;4.22;1.02;;;14.40;99.90;;;;;;5116539;27;20122;-67
2022/10/03 10:56:57;;;;;;;5.38;0.90;;;14.50;99.90;;;;;;5135727;27;20467;-66
2022/10/03 10:59:44;;;;;;;2.03;0.90;;;14.50;99.90;;;;;;5135373;27;20126;-66
2022/10/03 11:02:37;;;;;;;4.40;1.10;;;14.50;99.90;;;;;;5134437;27;20554;-66
2022/10/03 11:05:41;;;;;;;4.75;1.40;;;14.60;99.90;;;;;;5135115;27;20126;-66
2022/10/03 11:08:37;;;;;;;3.53;1.30;;;14.70;99.90;;;;;;5104320;27;20499;-66
2022/10/03 11:11:34;;;;;;;2.65;0.80;;;14.70;99.90;;;;;;5135519;27;20118;-66
2022/10/03 11:14:30;;;;;;;3.28;1.10;;;14.70;99.90;;;;;;5134661;27;20043;-66
2022/10/03 11:17:04;;;;;;;2.85;0.93;;;14.90;99.90;;;;;;5133912;27;20118;-66
2022/10/03 11:20:01;;;;;;;4.20;0.88;;;14.90;99.90;;;;;;5135208;27;20380;-66
2022/10/03 11:22:46;;;;;;;3.90;0.90;;;14.90;99.90;;;;;;5135236;27;20043;-66
2022/10/03 11:25:33;;;;;;;2.83;1.25;;;14.90;99.90;;;;;;5134806;27;20100;-66
2022/10/03 11:28:37;;;;;;;3.40;1.45;;;15.00;99.90;;;;;;5134718;27;20479;-66
2022/10/03 11:31:33;;;;;;;5.60;1.20;;;15.00;99.90;;;;;;5139171;27;20045;-66
2022/10/03 11:34:18;;;;;;;5.53;1.48;;;15.10;99.90;;;;;;5126753;27;20126;-66
2022/10/03 11:37:18;;;;;;;3.40;1.13;;;15.10;99.90;;;;;;5136031;27;20184;-66
2022/10/03 11:39:48;;;;;;;8.90;1.58;;;15.10;99.90;;;;;;5134760;27;20039;-66
2022/10/03 11:42:32;;;;;;;3.67;1.10;;;15.20;99.90;;;;;;5133473;27;20103;-66
2022/10/03 11:44:59;;;;;;;6.75;1.85;;;15.20;99.90;;;;;;5134342;27;20118;-66
2022/10/03 11:47:54;;;;;;;8.55;1.30;;;15.30;99.90;;;;;;5134587;27;20043;-65
2022/10/03 11:50:31;;;;;;;4.28;1.50;;;15.30;99.90;;;;;;5133140;27;20079;-66
2022/10/03 11:53:22;;;;;;;5.05;0.82;;;15.40;99.90;;;;;;5134583;27;20061;-66
2022/10/03 11:56:15;;;;;;;4.60;1.00;;;15.50;99.90;;;;;;5133993;27;20043;-66
2022/10/03 11:58:46;;;;;;;6.10;1.02;;;15.40;99.90;;;;;;5134220;27;20047;-65
2022/10/03 12:01:17;;;;;;;2.33;0.80;;;15.50;99.90;;;;;;5134179;27;20043;-66
2022/10/03 12:03:56;;;;;;;6.60;1.07;;;15.50;99.90;;;;;;5133970;27;20046;-66
2022/10/03 12:09:58;;;;;;;5.57;1.58;;;15.60;99.90;;;;;;5134168;27;20126;-65
2022/10/03 12:12:45;;;;;;;3.28;1.52;;;15.70;99.90;;;;;;5134449;27;20062;-65
2022/10/03 12:15:34;;;;;;;3.92;0.88;;;15.70;99.90;;;;;;5132334;27;20114;-66
2022/10/03 12:18:00;;;;;;;3.90;1.15;;;15.80;99.90;;;;;;5134112;27;20081;-66
2022/10/03 12:20:36;;;;;;;7.65;1.17;;;15.80;99.90;;;;;;5136677;27;20066;-65
2022/10/03 12:23:25;;;;;;;1.80;0.82;;;15.90;99.90;;;;;;5145165;27;20550;-65
2022/10/03 12:25:52;;;;;;;2.17;0.80;;;16.00;99.90;;;;;;5142806;27;20063;-66
2022/10/03 12:28:23;;;;;;;3.65;0.90;;;16.00;99.90;;;;;;5143712;27;20047;-65
2022/10/03 12:31:00;;;;;;;5.60;1.15;;;16.00;99.90;;;;;;5148971;27;20035;-66
2022/10/03 12:33:28;;;;;;;4.65;1.75;;;16.00;99.90;;;;;;5153954;27;20035;-66
2022/10/03 12:36:14;;;;;;;2.45;1.00;;;16.10;99.90;;;;;;5154045;27;20042;-66
2022/10/03 12:38:48;;;;;;;2.38;0.77;;;16.10;99.90;;;;;;5154304;27;20410;-66
2022/10/03 12:41:47;;;;;;;2.92;1.27;;;16.00;99.90;;;;;;5154105;27;20046;-65
2022/10/03 12:44:37;;;;;;;4.13;0.80;;;16.10;99.90;;;;;;5154088;27;20399;-66
2022/10/03 12:47:13;;;;;;;4.95;0.80;;;16.10;99.90;;;;;;5153116;27;20048;-65
2022/10/03 12:49:48;;;;;;;3.22;0.80;;;16.20;99.90;;;;;;5153712;27;20049;-66
2022/10/03 12:52:28;;;;;;;3.50;0.93;;;16.20;99.90;;;;;;5154097;27;20027;-66
2022/10/03 12:55:27;;;;;;;4.47;0.82;;;16.20;99.90;;;;;;5153681;27;20030;-66
2022/10/03 12:58:04;;;;;;;1.33;0.88;;;16.20;99.90;;;;;;5138135;27;20089;-66
2022/10/03 13:00:52;;;;;;;2.92;0.80;;;16.30;99.90;;;;;;5154106;27;20046;-65
2022/10/03 13:03:40;;;;;;;4.03;1.10;;;16.30;99.90;;;;;;5153801;27;20042;-66
2022/10/03 13:06:15;;;;;;;6.15;1.20;;;16.30;99.90;;;;;;5153451;27;20031;-65
2022/10/03 13:08:52;;;;;;;3.13;0.80;;;16.30;99.90;;;;;;5153629;27;20513;-65
2022/10/03 13:11:31;;;;;;;4.93;1.00;;;16.20;99.90;;;;;;5153899;27;20034;-65
2022/10/03 13:14:20;;;;;;;4.25;0.88;;;16.30;99.90;;;;;;5153695;27;20137;-66
2022/10/03 13:16:59;;;;;;;4.63;0.90;;;16.30;99.90;;;;;;5153101;27;20030;-66
2022/10/03 13:19:30;;;;;;;4.88;0.88;;;16.20;99.90;;;;;;5152836;27;20517;-66
2022/10/03 13:22:27;;;;;;;3.47;1.10;;;16.20;99.90;;;;;;5152273;27;20042;-66
2022/10/03 13:25:06;;;;;;;3.92;1.08;;;16.30;99.90;;;;;;5153129;27;20049;-66
2022/10/03 13:28:13;;;;;;;4.00;0.73;;;16.30;99.90;;;;;;5153509;27;20394;-66
2022/10/03 13:30:46;;;;;;;3.10;1.00;;;16.30;99.90;;;;;;5069172;28;20114;-66
2022/10/03 13:33:17;;;;;;;4.35;0.90;;;16.40;99.90;;;;;;5069040;28;20048;-66
2022/10/03 13:36:01;;;;;;;3.85;0.77;;;16.40;99.90;;;;;;5051897;28;20045;-65
2022/10/03 13:38:44;;;;;;;2.75;1.10;;;16.40;99.90;;;;;;5052247;28;20056;-66
2022/10/03 13:41:10;;;;;;;2.13;0.60;;;16.50;99.90;;;;;;5069164;28;20049;-66
2022/10/03 13:43:38;;;;;;;3.10;0.75;;;16.50;99.90;;;;;;5069105;28;20440;-66
2022/10/03 13:46:13;;;;;;;2.22;0.73;;;16.40;99.90;;;;;;5067863;28;20148;-66
2022/10/03 13:48:43;;;;;;;5.43;0.95;;;16.50;99.90;;;;;;5068675;28;20052;-66
2022/10/03 13:51:52;;;;;;;4.70;1.00;;;16.60;99.90;;;;;;5068882;28;20044;-66
2022/10/03 13:54:43;;;;;;;1.55;0.88;;;16.60;99.90;;;;;;5068381;28;20040;-66
2022/10/03 13:57:17;;;;;;;4.13;1.00;;;16.60;99.90;;;;;;5068381;28;20047;-66
2022/10/03 14:00:18;;;;;;;2.58;0.70;;;16.60;99.90;;;;;;5068679;28;20047;-66
2022/10/03 14:02:58;;;;;;;5.45;0.70;;;16.60;99.90;;;;;;5035460;28;20116;-65
2022/10/03 14:05:30;;;;;;;2.90;1.00;;;16.70;99.90;;;;;;5140893;27;20050;-66
2022/10/03 14:08:06;;;;;;;4.97;0.80;;;16.70;99.90;;;;;;5142867;27;20457;-66
2022/10/03 14:10:54;;;;;;;3.50;0.90;;;16.80;99.90;;;;;;5144370;27;20062;-65
2022/10/03 14:13:51;;;;;;;5.28;0.90;;;16.70;99.90;;;;;;5153127;27;20058;-66
2022/10/03 14:16:42;;;;;;;3.92;1.10;;;16.70;99.90;;;;;;5151573;27;20046;-66
2022/10/03 14:19:27;;;;;;;4.30;0.85;;;16.70;99.90;;;;;;5151669;27;20494;-65
2022/10/03 14:22:11;;;;;;;4.55;1.17;;;16.70;99.90;;;;;;5151938;27;20463;-65
2022/10/03 14:24:56;;;;;;;3.40;0.82;;;16.70;99.90;;;;;;5152577;27;20046;-66
2022/10/03 14:28:06;;;;;;;3.47;0.68;;;16.70;99.90;;;;;;5152990;27;20042;-65
2022/10/03 14:30:49;;;;;;;3.42;0.80;;;16.70;99.90;;;;;;5152197;27;20042;-65
2022/10/03 14:33:17;;;;;;;;;;;16.70;99.90;;;;;;5153443;27;20066;-65
2022/10/03 14:36:13;;;;;;;2.95;0.70;;;16.70;99.90;;;;;;5152174;27;20382;-66
2022/10/03 14:39:12;;;;;;;3.47;0.80;;;16.80;99.90;;;;;;5151525;27;20518;-66
2022/10/03 14:41:43;;;;;;;3.10;0.75;;;16.80;99.90;;;;;;5068498;28;20527;-66